createdAt,value
2017-07-19T00:02:27.495Z,10.10
2017-07-19T00:04:57.277Z,10.90
2017-07-19T00:07:25.889Z,15.53
2017-07-19T00:09:54.473Z,10.90
2017-07-19T00:12:22.814Z,20.33
2017-07-19T00:14:51.909Z,16.07
2017-07-19T00:17:20.287Z,16.17
2017-07-19T00:19:48.626Z,8.70
2017-07-19T00:22:17.727Z,16.20
2017-07-19T00:24:46.402Z,10.27
2017-07-19T00:27:14.758Z,12.80
2017-07-19T00:29:43.116Z,17.27
2017-07-19T00:32:12.396Z,7.07
2017-07-19T00:34:41.491Z,11.63
2017-07-19T00:37:10.799Z,8.90
2017-07-19T00:39:40.274Z,10.40
2017-07-19T00:42:08.694Z,11.43
2017-07-19T00:44:37.893Z,13.43
2017-07-19T00:47:08.520Z,17.90
2017-07-19T00:49:36.926Z,9.33
2017-07-19T00:52:05.625Z,9.83
2017-07-19T00:54:35.630Z,16.23
2017-07-19T00:57:04.929Z,10.93
2017-07-19T00:59:33.381Z,16.70
2017-07-19T01:02:02.204Z,8.00
2017-07-19T01:04:30.786Z,18.47
2017-07-19T01:06:59.568Z,13.13
2017-07-19T01:09:28.650Z,13.50
2017-07-19T01:11:58.171Z,7.50
2017-07-19T01:14:26.684Z,13.73
2017-07-19T01:16:56.151Z,8.40
2017-07-19T01:19:24.524Z,9.33
2017-07-19T01:21:52.880Z,11.40
2017-07-19T01:24:21.573Z,12.50
2017-07-19T01:26:49.913Z,14.43
2017-07-19T01:29:18.261Z,13.23
2017-07-19T01:31:47.795Z,11.93
2017-07-19T01:34:16.209Z,12.37
2017-07-19T01:36:44.603Z,11.07
2017-07-19T01:39:13.829Z,16.20
2017-07-19T01:41:42.165Z,8.30
2017-07-19T01:44:11.601Z,13.70
2017-07-19T01:46:41.083Z,11.37
2017-07-19T01:49:09.450Z,15.97
2017-07-19T01:51:38.592Z,14.83
2017-07-19T01:54:07.179Z,14.53
2017-07-19T01:56:35.613Z,8.57
2017-07-19T01:59:04.022Z,12.90
2017-07-19T02:01:33.421Z,9.90
2017-07-19T02:04:01.893Z,18.80
2017-07-19T02:06:30.352Z,8.30
2017-07-19T02:09:00.075Z,12.70
2017-07-19T02:11:28.545Z,16.80
2017-07-19T02:13:57.300Z,13.00
2017-07-19T02:16:26.086Z,11.70
2017-07-19T02:18:54.429Z,9.67
2017-07-19T02:21:24.544Z,12.00
2017-07-19T02:23:53.542Z,13.27
2017-07-19T02:26:21.884Z,12.73
2017-07-19T02:28:50.209Z,17.70
2017-07-19T02:31:19.768Z,13.07
2017-07-19T02:33:48.098Z,12.63
2017-07-19T02:36:16.466Z,12.23
2017-07-19T02:38:45.983Z,14.00
2017-07-19T02:41:14.316Z,12.13
2017-07-19T02:43:42.681Z,24.37
2017-07-19T02:46:11.281Z,14.73
2017-07-19T02:48:39.647Z,8.47
2017-07-19T02:51:08.062Z,15.90
2017-07-19T02:53:37.153Z,10.80
2017-07-19T02:56:05.677Z,15.00
2017-07-19T02:58:34.086Z,15.33
2017-07-19T03:01:02.904Z,16.50
2017-07-19T03:03:31.429Z,21.77
2017-07-19T03:05:59.896Z,13.53
2017-07-19T03:08:29.805Z,13.50
2017-07-19T03:10:58.285Z,12.57
2017-07-19T03:13:26.866Z,17.73
2017-07-19T03:15:55.596Z,11.60
2017-07-19T03:18:23.972Z,11.17
2017-07-19T03:20:52.298Z,19.70
2017-07-19T03:23:22.064Z,13.87
2017-07-19T03:25:50.366Z,18.97
2017-07-19T03:28:18.693Z,13.13
2017-07-19T03:30:47.457Z,22.93
2017-07-19T03:33:15.784Z,19.37
2017-07-19T03:35:44.167Z,10.10
2017-07-19T03:38:13.607Z,16.30
2017-07-19T03:40:41.936Z,16.43
2017-07-19T03:43:10.254Z,26.50
2017-07-19T03:45:38.963Z,22.97
2017-07-19T03:48:07.397Z,19.73
2017-07-19T03:50:35.809Z,16.57
2017-07-19T03:53:04.397Z,15.17
2017-07-19T03:55:33.762Z,17.07
2017-07-19T04:00:54.618Z,22.60
2017-07-19T04:03:23.043Z,15.07
2017-07-19T04:05:51.420Z,15.40
2017-07-19T04:08:20.073Z,25.40
2017-07-19T04:10:49.350Z,11.53
2017-07-19T04:13:17.731Z,13.93
2017-07-19T04:15:47.208Z,14.77
2017-07-19T04:18:16.321Z,13.23
2017-07-19T04:20:44.816Z,19.70
2017-07-19T04:23:14.370Z,19.43
2017-07-19T04:25:42.757Z,18.93
2017-07-19T04:28:11.181Z,17.03
2017-07-19T04:30:39.920Z,20.07
2017-07-19T04:33:08.360Z,16.50
2017-07-19T04:35:37.921Z,16.10
2017-07-19T04:38:06.478Z,21.63
2017-07-19T04:40:34.924Z,16.70
2017-07-19T04:43:04.193Z,14.23
2017-07-19T04:45:33.995Z,24.77
2017-07-19T04:48:02.373Z,19.40
2017-07-19T04:50:30.855Z,22.60
2017-07-19T04:52:59.450Z,15.33
2017-07-19T04:55:27.905Z,22.30
2017-07-19T04:57:56.316Z,16.77
2017-07-19T05:00:26.731Z,28.30
2017-07-19T05:02:55.127Z,18.47
2017-07-19T05:05:23.488Z,16.27
2017-07-19T05:07:53.254Z,21.30
2017-07-19T05:10:21.573Z,12.73
2017-07-19T05:12:49.916Z,19.40
2017-07-19T05:15:19.266Z,16.67
2017-07-19T05:17:47.601Z,21.90
2017-07-19T05:20:15.926Z,14.93
2017-07-19T05:22:44.304Z,9.40
2017-07-19T05:25:12.703Z,27.80
2017-07-19T05:27:41.046Z,13.67
2017-07-19T05:30:09.841Z,9.90
2017-07-19T05:32:38.248Z,10.50
2017-07-19T05:35:07.595Z,14.83
2017-07-19T05:37:36.308Z,17.30
2017-07-19T05:40:07.290Z,14.00
2017-07-19T05:42:35.724Z,19.90
2017-07-19T05:45:04.849Z,8.10
2017-07-19T05:47:33.242Z,12.13
2017-07-19T05:50:01.826Z,19.67
2017-07-19T05:52:31.520Z,10.23
2017-07-19T05:55:01.095Z,14.70
2017-07-19T05:57:29.890Z,11.57
2017-07-19T05:59:58.779Z,17.73
2017-07-19T06:02:27.517Z,20.53
2017-07-19T06:04:56.022Z,19.70
2017-07-19T06:07:24.702Z,15.20
2017-07-19T06:09:53.953Z,14.37
2017-07-19T06:12:22.304Z,16.17
2017-07-19T06:14:52.626Z,23.30
2017-07-19T06:17:20.970Z,9.07
2017-07-19T06:19:51.083Z,12.13
2017-07-19T06:22:19.746Z,15.23
2017-07-19T06:24:48.824Z,10.53
2017-07-19T06:27:17.188Z,13.77
2017-07-19T06:29:46.609Z,17.03
2017-07-19T06:32:14.937Z,18.70
2017-07-19T06:34:43.270Z,14.73
2017-07-19T06:37:12.132Z,12.60
2017-07-19T06:39:40.461Z,9.40
2017-07-19T06:42:09.731Z,11.93
2017-07-19T06:44:39.189Z,13.50
2017-07-19T06:47:07.517Z,19.63
2017-07-19T06:49:35.906Z,10.23
2017-07-19T06:52:05.180Z,8.33
2017-07-19T06:54:33.572Z,8.07
2017-07-19T06:57:02.049Z,10.90
2017-07-19T06:59:31.647Z,8.57
2017-07-19T07:02:01.072Z,11.33
2017-07-19T07:04:29.502Z,15.43
2017-07-19T07:06:58.571Z,9.10
2017-07-19T07:09:27.785Z,6.70
2017-07-19T07:11:56.217Z,10.13
2017-07-19T07:14:26.099Z,9.37
2017-07-19T07:16:54.434Z,6.00
2017-07-19T07:19:22.765Z,6.00
2017-07-19T07:21:51.655Z,12.53
2017-07-19T07:24:20.727Z,9.60
2017-07-19T07:26:50.002Z,14.67
2017-07-19T07:29:19.023Z,13.30
2017-07-19T07:31:47.354Z,7.77
2017-07-19T07:34:15.718Z,10.80
2017-07-19T07:36:44.299Z,7.97
2017-07-19T07:39:12.637Z,16.53
2017-07-19T07:41:41.007Z,11.93
2017-07-19T07:44:11.437Z,8.80
2017-07-19T07:46:41.252Z,7.20
2017-07-19T07:49:10.654Z,7.57
2017-07-19T07:51:39.269Z,13.93
2017-07-19T07:54:07.866Z,6.13
2017-07-19T07:56:36.362Z,12.13
2017-07-19T07:59:05.470Z,7.60
2017-07-19T08:01:33.912Z,7.80
2017-07-19T08:04:03.115Z,10.07
2017-07-19T08:06:33.808Z,8.57
2017-07-19T08:09:03.231Z,9.57
2017-07-19T08:11:32.029Z,8.80
2017-07-19T08:14:00.546Z,40.47
2017-07-19T08:16:29.953Z,8.00
2017-07-19T08:21:26.384Z,9.40
2017-07-19T08:23:54.778Z,14.43
2017-07-19T08:26:26.898Z,7.53
2017-07-19T08:28:56.253Z,7.53
2017-07-19T08:31:25.660Z,7.17
2017-07-19T08:33:54.046Z,7.50
2017-07-19T08:36:26.710Z,19.07
2017-07-19T08:38:55.059Z,10.10
2017-07-19T08:41:24.217Z,14.50
2017-07-19T08:43:53.358Z,11.50
2017-07-19T08:46:21.683Z,16.07
2017-07-19T08:48:50.346Z,9.27
2017-07-19T08:51:20.034Z,8.33
2017-07-19T08:53:49.116Z,11.97
2017-07-19T08:56:17.453Z,12.10
2017-07-19T08:58:47.925Z,16.07
2017-07-19T09:01:16.274Z,15.23
2017-07-19T09:03:44.639Z,15.30
2017-07-19T09:06:13.637Z,8.37
2017-07-19T09:08:41.974Z,10.20
2017-07-19T09:11:10.315Z,14.20
2017-07-19T09:13:39.367Z,11.87
2017-07-19T09:16:07.719Z,15.10
2017-07-19T09:18:37.114Z,6.37
2017-07-19T09:21:05.881Z,11.10
2017-07-19T09:23:34.383Z,12.40
2017-07-19T09:26:03.891Z,15.00
2017-07-19T09:28:32.863Z,12.53
2017-07-19T09:31:01.439Z,12.63
2017-07-19T09:33:29.977Z,7.93
2017-07-19T09:35:58.759Z,13.93
2017-07-19T09:38:27.871Z,14.20
2017-07-19T09:40:56.327Z,11.10
2017-07-19T09:43:24.712Z,7.90
2017-07-19T09:45:53.039Z,11.50
2017-07-19T09:48:21.418Z,14.03
2017-07-19T09:50:50.002Z,13.07
2017-07-19T09:53:18.332Z,18.17
2017-07-19T09:55:46.685Z,12.50
2017-07-19T09:58:15.145Z,15.60
2017-07-19T10:00:43.523Z,9.60
2017-07-19T10:03:12.617Z,7.13
2017-07-19T10:05:41.529Z,12.50
2017-07-19T10:08:09.887Z,9.00
2017-07-19T10:10:38.324Z,14.37
2017-07-19T10:13:07.391Z,8.53
2017-07-19T10:15:35.845Z,7.07
2017-07-19T10:18:04.329Z,8.33
2017-07-19T10:20:32.985Z,10.60
2017-07-19T10:23:02.190Z,15.23
2017-07-19T10:25:31.010Z,10.10
2017-07-19T10:28:00.894Z,10.70
2017-07-19T10:30:29.408Z,9.23
2017-07-19T10:32:57.876Z,12.40
2017-07-19T10:35:27.404Z,6.83
2017-07-19T10:37:55.828Z,10.93
2017-07-19T10:40:24.232Z,8.53
2017-07-19T10:42:52.611Z,8.67
2017-07-19T10:45:20.943Z,11.00
2017-07-19T10:47:49.306Z,11.40
2017-07-19T10:50:17.988Z,9.30
2017-07-19T10:52:47.120Z,5.10
2017-07-19T10:55:15.451Z,10.30
2017-07-19T10:57:43.980Z,8.83
2017-07-19T11:00:12.344Z,6.20
2017-07-19T11:02:40.686Z,9.93
2017-07-19T11:05:10.962Z,9.90
2017-07-19T11:07:39.283Z,7.60
2017-07-19T11:10:07.724Z,6.87
2017-07-19T11:12:37.139Z,8.80
2017-07-19T11:15:05.652Z,4.53
2017-07-19T11:17:36.085Z,7.30
2017-07-19T11:20:05.037Z,15.93
2017-07-19T11:22:34.280Z,11.73
2017-07-19T11:25:02.842Z,9.33
2017-07-19T11:27:31.654Z,10.30
2017-07-19T11:30:00.472Z,12.57
2017-07-19T11:32:29.031Z,14.23
2017-07-19T11:34:59.816Z,13.10
2017-07-19T11:37:28.293Z,11.43
2017-07-19T11:39:57.529Z,8.70
2017-07-19T11:42:27.089Z,10.83
2017-07-19T11:44:55.402Z,11.03
2017-07-19T11:47:25.421Z,5.20
2017-07-19T11:49:54.070Z,7.80
2017-07-19T11:52:22.420Z,7.73
2017-07-19T11:54:52.205Z,8.60
2017-07-19T11:57:20.796Z,9.53
2017-07-19T11:59:49.177Z,9.40
2017-07-19T12:02:17.510Z,6.60
2017-07-19T12:04:45.888Z,11.20
2017-07-19T12:07:14.210Z,11.47
2017-07-19T12:09:42.548Z,13.70
2017-07-19T12:12:11.180Z,6.63
2017-07-19T12:14:39.583Z,4.90
2017-07-19T12:17:08.027Z,9.47
2017-07-19T12:19:36.934Z,7.10
2017-07-19T12:22:05.298Z,9.70
2017-07-19T12:24:33.814Z,12.47
2017-07-19T12:27:02.476Z,7.80
2017-07-19T12:29:30.905Z,9.30
2017-07-19T12:31:59.484Z,7.67
2017-07-19T12:34:29.053Z,11.77
2017-07-19T12:36:58.122Z,17.00
2017-07-19T12:39:26.653Z,7.10
2017-07-19T12:41:57.867Z,8.53
2017-07-19T12:44:27.575Z,9.40
2017-07-19T12:46:55.984Z,7.30
2017-07-19T12:49:29.050Z,10.83
2017-07-19T12:51:57.634Z,7.73
2017-07-19T12:54:26.555Z,8.67
2017-07-19T12:56:55.478Z,6.10
2017-07-19T12:59:23.975Z,10.90
2017-07-19T13:01:52.349Z,14.87
2017-07-19T13:04:21.300Z,10.17
2017-07-19T13:06:50.394Z,12.93
2017-07-19T13:09:18.800Z,6.57
2017-07-19T13:11:47.248Z,11.87
2017-07-19T13:14:15.636Z,6.83
2017-07-19T13:16:44.017Z,6.40
2017-07-19T13:19:13.325Z,5.43
2017-07-19T13:21:42.405Z,7.53
2017-07-19T13:24:11.744Z,11.00
2017-07-19T13:26:40.470Z,11.70
2017-07-19T13:29:08.942Z,15.20
2017-07-19T13:31:37.353Z,7.80
2017-07-19T13:34:06.195Z,12.83
2017-07-19T13:36:34.572Z,14.83
2017-07-19T13:39:03.172Z,14.37
2017-07-19T13:41:32.681Z,15.57
2017-07-19T13:44:01.148Z,11.47
2017-07-19T13:46:29.935Z,17.80
2017-07-19T13:48:58.995Z,17.67
2017-07-19T13:51:27.670Z,13.67
2017-07-19T13:53:56.541Z,12.47
2017-07-19T13:56:26.259Z,13.63
2017-07-19T13:58:54.771Z,14.50
2017-07-19T14:01:23.117Z,10.00
2017-07-19T14:03:51.908Z,10.43
2017-07-19T14:06:20.214Z,12.87
2017-07-19T14:11:10.935Z,17.77
2017-07-19T14:13:41.260Z,13.47
2017-07-19T14:16:09.605Z,10.60
2017-07-19T14:18:38.329Z,20.77
2017-07-19T14:21:06.760Z,8.10
2017-07-19T14:23:35.110Z,11.80
2017-07-19T14:26:03.905Z,11.90
2017-07-19T14:28:32.480Z,7.60
2017-07-19T14:31:01.152Z,6.57
2017-07-19T14:33:30.279Z,8.97
2017-07-19T14:35:58.726Z,9.83
2017-07-19T14:38:27.362Z,8.07
2017-07-19T14:40:57.463Z,11.40
2017-07-19T14:43:28.038Z,13.63
2017-07-19T14:45:56.478Z,9.73
2017-07-19T14:48:31.816Z,10.60
2017-07-19T14:51:00.380Z,10.40
2017-07-19T14:53:29.658Z,9.93
2017-07-19T14:55:58.254Z,12.40
2017-07-19T14:58:26.757Z,7.73
2017-07-19T15:00:56.597Z,12.80
2017-07-19T15:03:24.963Z,7.33
2017-07-19T15:05:53.315Z,11.33
2017-07-19T15:08:22.028Z,16.37
2017-07-19T15:10:50.324Z,8.23
2017-07-19T15:13:18.689Z,11.57
2017-07-19T15:15:47.635Z,18.30
2017-07-19T15:18:15.985Z,10.50
2017-07-19T15:20:44.350Z,8.47
2017-07-19T15:23:12.901Z,9.57
2017-07-19T15:25:41.242Z,13.03
2017-07-19T15:28:09.578Z,16.87
2017-07-19T15:30:37.934Z,17.80
2017-07-19T15:33:06.402Z,18.73
2017-07-19T15:35:34.756Z,15.67
2017-07-19T15:38:03.548Z,21.00
2017-07-19T15:40:33.294Z,18.87
2017-07-19T15:43:01.748Z,19.13
2017-07-19T15:45:31.363Z,7.83
2017-07-19T15:48:00.039Z,17.30
2017-07-19T15:50:28.830Z,18.57
2017-07-19T15:52:57.979Z,26.17
2017-07-19T15:55:28.951Z,13.50
2017-07-19T15:57:57.768Z,13.87
2017-07-19T16:00:26.885Z,37.77
2017-07-19T16:02:56.125Z,8.80
2017-07-19T16:05:24.674Z,13.50
2017-07-19T16:07:53.688Z,14.87
2017-07-19T16:10:21.999Z,14.80
2017-07-19T16:12:50.397Z,7.70
2017-07-19T16:15:19.514Z,15.70
2017-07-19T16:17:47.841Z,16.13
2017-07-19T16:20:17.114Z,21.57
2017-07-19T16:22:46.733Z,12.03
2017-07-19T16:25:15.100Z,16.50
2017-07-19T16:27:43.409Z,10.30
2017-07-19T16:30:13.294Z,16.10
2017-07-19T16:32:41.634Z,22.10
2017-07-19T16:35:09.949Z,18.97
2017-07-19T16:37:39.257Z,13.00
2017-07-19T16:40:07.628Z,12.07
2017-07-19T16:42:36.005Z,14.03
2017-07-19T16:45:04.910Z,12.63
2017-07-19T16:47:33.351Z,25.63
2017-07-19T16:50:01.892Z,19.20
2017-07-19T16:52:31.036Z,21.03
2017-07-19T16:55:00.541Z,13.63
2017-07-19T16:57:30.509Z,12.17
2017-07-19T16:59:59.363Z,22.13
2017-07-19T17:02:27.804Z,14.13
2017-07-19T17:04:56.564Z,15.03
2017-07-19T17:07:24.944Z,27.67
2017-07-19T17:09:54.219Z,24.00
2017-07-19T17:12:22.555Z,16.93
2017-07-19T17:14:51.962Z,16.53
2017-07-19T17:17:21.671Z,14.50
2017-07-19T17:19:50.018Z,11.53
2017-07-19T17:22:18.876Z,11.73
2017-07-19T17:24:47.218Z,20.60
2017-07-19T17:27:15.532Z,14.70
2017-07-19T17:29:45.124Z,19.33
2017-07-19T17:32:13.481Z,19.70
2017-07-19T17:34:41.841Z,25.67
2017-07-19T17:37:10.642Z,18.40
2017-07-19T17:39:39.002Z,21.23
2017-07-19T17:42:07.409Z,25.57
2017-07-19T17:44:36.180Z,16.80
2017-07-19T17:47:04.586Z,15.40
2017-07-19T17:49:33.172Z,17.13
2017-07-19T17:52:02.398Z,20.33
2017-07-19T17:54:31.412Z,37.43
2017-07-19T17:57:00.744Z,17.33
2017-07-19T17:59:29.193Z,20.50
2017-07-19T18:01:57.652Z,16.37
2017-07-19T18:04:26.002Z,18.03
2017-07-19T18:06:55.083Z,14.33
2017-07-19T18:09:23.420Z,17.30
2017-07-19T18:11:52.506Z,16.83
2017-07-19T18:14:21.313Z,15.73
2017-07-19T18:16:49.624Z,19.27
2017-07-19T18:19:18.717Z,20.63
2017-07-19T18:21:48.223Z,14.90
2017-07-19T18:24:16.582Z,29.17
2017-07-19T18:26:44.908Z,12.93
2017-07-19T18:29:15.093Z,20.17
2017-07-19T18:31:48.915Z,15.47
2017-07-19T18:34:18.548Z,18.27
2017-07-19T18:36:46.874Z,20.07
2017-07-19T18:39:15.213Z,26.03
2017-07-19T18:41:43.749Z,19.63
2017-07-19T18:44:12.119Z,14.77
2017-07-19T18:46:40.512Z,25.93
2017-07-19T18:49:09.689Z,32.47
2017-07-19T18:51:38.076Z,13.73
2017-07-19T18:54:07.242Z,24.47
2017-07-19T18:56:35.875Z,16.90
2017-07-19T18:59:04.218Z,19.53
2017-07-19T19:01:32.565Z,18.20
2017-07-19T19:04:01.391Z,10.70
2017-07-19T19:06:29.866Z,10.30
2017-07-19T19:09:00.211Z,14.33
2017-07-19T19:11:30.120Z,11.53
2017-07-19T19:13:58.539Z,15.80
2017-07-19T19:16:26.909Z,13.07
2017-07-19T19:18:55.340Z,13.93
2017-07-19T19:21:23.672Z,10.77
2017-07-19T19:23:52.010Z,9.03
2017-07-19T19:26:22.008Z,13.63
2017-07-19T19:28:50.352Z,14.23
2017-07-19T19:31:18.667Z,7.67
2017-07-19T19:33:47.755Z,18.20
2017-07-19T19:36:16.103Z,12.50
2017-07-19T19:38:44.515Z,14.57
2017-07-19T19:41:13.270Z,14.97
2017-07-19T19:43:41.583Z,21.63
2017-07-19T19:46:09.896Z,12.40
2017-07-19T19:48:38.650Z,21.57
2017-07-19T19:51:07.104Z,18.63
2017-07-19T19:53:36.401Z,12.80
2017-07-19T19:56:04.938Z,13.60
2017-07-19T19:58:34.077Z,11.00
2017-07-19T20:01:02.569Z,8.00
2017-07-19T20:03:31.545Z,13.30
2017-07-19T20:06:01.111Z,15.00
2017-07-19T20:08:29.736Z,23.00
2017-07-19T20:10:58.474Z,19.83
2017-07-19T20:13:26.814Z,14.10
2017-07-19T20:15:57.003Z,13.57
2017-07-19T20:18:25.460Z,13.73
2017-07-19T20:20:53.795Z,15.67
2017-07-19T20:23:22.901Z,19.00
2017-07-19T20:25:52.831Z,16.40
2017-07-19T20:28:21.434Z,14.37
2017-07-19T20:30:49.731Z,16.60
2017-07-19T20:33:18.729Z,14.20
2017-07-19T20:35:47.980Z,14.40
2017-07-19T20:38:16.316Z,21.40
2017-07-19T20:40:45.143Z,17.17
2017-07-19T20:43:20.937Z,33.20
2017-07-19T20:45:50.458Z,14.77
2017-07-19T20:48:18.953Z,20.63
2017-07-19T20:50:47.277Z,25.67
2017-07-19T20:53:15.967Z,24.40
2017-07-19T20:55:44.282Z,19.87
2017-07-19T20:58:13.487Z,25.77
2017-07-19T21:00:42.184Z,19.00
2017-07-19T21:03:10.508Z,30.43
2017-07-19T21:05:38.847Z,27.70
2017-07-19T21:08:07.716Z,23.77
2017-07-19T21:10:36.073Z,27.13
2017-07-19T21:13:05.652Z,22.37
2017-07-19T21:15:34.761Z,31.17
2017-07-19T21:18:03.141Z,34.13
2017-07-19T21:20:32.253Z,30.23
2017-07-19T21:23:00.936Z,34.67
2017-07-19T21:25:29.349Z,32.10
2017-07-19T21:27:57.835Z,30.13
2017-07-19T21:30:26.565Z,33.90
2017-07-19T21:32:54.910Z,31.87
2017-07-19T21:35:23.232Z,48.87
2017-07-19T21:37:51.744Z,61.63
2017-07-19T21:40:20.087Z,55.37
2017-07-19T21:42:48.429Z,49.67
2017-07-19T21:45:17.317Z,52.23
2017-07-19T21:47:45.633Z,62.83
2017-07-19T21:50:13.992Z,58.93
2017-07-19T21:52:42.688Z,57.87
2017-07-19T21:55:11.086Z,35.67
2017-07-19T21:57:39.436Z,41.10
2017-07-19T22:00:08.344Z,30.87
2017-07-19T22:02:36.701Z,23.93
2017-07-19T22:05:05.082Z,24.67
2017-07-19T22:07:34.067Z,28.90
2017-07-19T22:10:02.449Z,19.60
2017-07-19T22:12:31.620Z,23.20
2017-07-19T22:15:03.182Z,16.90
2017-07-19T22:17:31.626Z,19.40
2017-07-19T22:20:00.833Z,33.10
2017-07-19T22:22:30.363Z,21.83
2017-07-19T22:24:58.714Z,19.40
2017-07-19T22:27:27.069Z,20.80
2017-07-19T22:29:55.785Z,21.77
2017-07-19T22:32:24.133Z,18.43
2017-07-19T22:34:52.452Z,15.67
2017-07-19T22:37:21.242Z,14.80
2017-07-19T22:39:49.573Z,16.80
2017-07-19T22:42:18.664Z,13.90
2017-07-19T22:44:47.636Z,8.93
2017-07-19T22:47:16.738Z,14.83
2017-07-19T22:49:45.061Z,13.07
2017-07-19T22:52:15.104Z,16.67
2017-07-19T22:54:53.237Z,13.27
2017-07-19T22:57:24.523Z,16.27
2017-07-19T22:59:52.870Z,13.47
2017-07-19T23:02:21.179Z,17.83
2017-07-19T23:04:50.347Z,10.60
2017-07-19T23:07:19.704Z,18.60
2017-07-19T23:09:48.023Z,15.93
2017-07-19T23:12:16.641Z,24.43
2017-07-19T23:14:44.985Z,9.77
2017-07-19T23:17:14.198Z,13.20
2017-07-19T23:19:43.389Z,14.07
2017-07-19T23:22:11.723Z,12.07
2017-07-19T23:24:41.020Z,10.53
2017-07-19T23:27:10.183Z,7.97
2017-07-19T23:29:39.274Z,10.70
2017-07-19T23:32:07.679Z,7.73
2017-07-19T23:34:37.205Z,6.40
2017-07-19T23:37:05.541Z,7.87
2017-07-19T23:39:33.930Z,15.53
2017-07-19T23:42:03.886Z,11.13
2017-07-19T23:44:32.208Z,7.93
2017-07-19T23:47:01.324Z,7.53
2017-07-19T23:49:30.058Z,10.90
2017-07-19T23:52:00.184Z,12.70
2017-07-19T23:54:28.693Z,9.57
2017-07-19T23:56:58.191Z,8.10
2017-07-19T23:59:27.339Z,10.23
